Time;durP1;ratioP1;P1;durP2;ratioP2;P2;SDS_P1;SDS_P2;PMS_P1;PMS_P2;Temp;Humidity;BMP_temperature;BMP_pressure;BME280_temperature;BME280_humidity;BME280_pressure;Samples;Min_cycle;Max_cycle;Signal;HPM_P1;HPM_P2
2023/04/02 00:01:43;;;;;;;1.30;1.30;;;16.00;60.30;;;;;;5051937;28;20187;-66
2023/04/02 00:04:21;;;;;;;1.58;1.30;;;16.00;60.30;;;;;;5052931;28;20529;-65
2023/04/02 00:06:48;;;;;;;1.42;1.33;;;16.00;60.20;;;;;;5052705;28;20273;-66
2023/04/02 00:09:13;;;;;;;1.30;1.20;;;16.00;60.30;;;;;;5052254;28;20182;-66
2023/04/02 00:11:44;;;;;;;1.48;1.40;;;16.00;60.30;;;;;;5052803;28;20174;-65
2023/04/02 00:14:36;;;;;;;1.38;1.38;;;16.00;60.30;;;;;;5051841;28;20171;-65
2023/04/02 00:17:03;;;;;;;1.38;1.27;;;16.00;60.20;;;;;;5050733;28;20270;-65
2023/04/02 00:19:58;;;;;;;1.30;1.20;;;15.90;60.20;;;;;;5051577;28;20207;-65
2023/04/02 00:22:28;;;;;;;1.60;1.40;;;16.00;60.30;;;;;;5052461;28;20222;-64
2023/04/02 00:24:54;;;;;;;1.27;1.27;;;15.90;60.10;;;;;;5052382;28;20183;-65
2023/04/02 00:27:20;;;;;;;1.35;1.30;;;15.90;60.30;;;;;;5052826;28;20232;-66
2023/04/02 00:29:53;;;;;;;1.30;1.20;;;15.90;60.20;;;;;;5051630;28;20186;-67
2023/04/02 00:32:21;;;;;;;1.23;1.23;;;15.90;60.30;;;;;;5052556;28;20172;-66
2023/04/02 00:34:47;;;;;;;1.40;1.30;;;15.90;60.10;;;;;;5051071;28;20179;-66
2023/04/02 00:37:17;;;;;;;1.30;1.30;;;15.90;60.20;;;;;;5051842;28;20174;-65
2023/04/02 00:39:42;;;;;;;1.50;1.40;;;15.90;60.10;;;;;;5051251;28;20222;-66
2023/04/02 00:42:10;;;;;;;1.60;1.50;;;16.00;60.10;;;;;;5052565;28;20642;-65
2023/04/02 00:44:37;;;;;;;1.48;1.38;;;15.90;60.20;;;;;;5034421;28;20428;-67
2023/04/02 00:47:23;;;;;;;1.30;1.27;;;15.90;60.30;;;;;;5037166;28;20214;-66
2023/04/02 00:49:56;;;;;;;1.38;1.30;;;15.90;60.20;;;;;;5054986;28;20584;-66
2023/04/02 00:52:23;;;;;;;1.33;1.23;;;15.90;60.10;;;;;;5054754;28;20209;-65
2023/04/02 00:55:05;;;;;;;1.52;1.42;;;15.90;60.20;;;;;;5038456;28;20190;-66
2023/04/02 00:57:32;;;;;;;1.45;1.35;;;15.90;60.20;;;;;;5055438;28;20179;-65
2023/04/02 01:00:22;;;;;;;1.50;1.40;;;15.90;60.20;;;;;;5055160;28;20211;-66
2023/04/02 01:03:15;;;;;;;1.55;1.45;;;15.90;60.20;;;;;;5052706;28;20258;-66
2023/04/02 01:05:41;;;;;;;1.90;1.38;;;15.90;60.20;;;;;;5055607;28;20221;-65
2023/04/02 01:08:09;;;;;;;1.42;1.33;;;15.90;60.20;;;;;;5055006;28;20193;-65
2023/04/02 01:10:48;;;;;;;1.58;1.48;;;15.90;60.30;;;;;;5055069;28;20186;-65
2023/04/02 01:13:20;;;;;;;1.30;1.20;;;15.90;60.30;;;;;;5054562;28;20198;-65
2023/04/02 01:16:12;;;;;;;1.30;1.20;;;15.90;60.30;;;;;;5055785;28;20680;-65
2023/04/02 01:18:49;;;;;;;1.25;1.23;;;15.90;60.20;;;;;;5055912;28;20183;-64
2023/04/02 01:21:20;;;;;;;1.42;1.33;;;15.90;60.20;;;;;;5054805;28;20227;-64
2023/04/02 01:23:52;;;;;;;1.27;1.27;;;15.90;60.20;;;;;;5054524;28;20171;-64
2023/04/02 01:26:43;;;;;;;1.40;1.30;;;15.90;60.20;;;;;;5055368;28;20177;-65
2023/04/02 01:29:26;;;;;;;1.42;1.30;;;15.80;60.10;;;;;;5054828;28;20254;-66
2023/04/02 01:31:52;;;;;;;1.33;1.30;;;15.80;60.10;;;;;;5038566;28;20179;-66
2023/04/02 01:34:20;;;;;;;1.65;1.58;;;15.90;60.20;;;;;;5055141;28;20182;-66
2023/04/02 01:36:49;;;;;;;1.30;1.30;;;15.80;60.20;;;;;;5054281;28;20553;-65
2023/04/02 01:39:29;;;;;;;1.30;1.20;;;15.80;60.20;;;;;;5055504;28;20587;-64
2023/04/02 01:42:14;;;;;;;1.45;1.23;;;15.80;60.10;;;;;;5053723;28;20262;-65
2023/04/02 01:44:59;;;;;;;2.05;1.52;;;15.80;60.10;;;;;;5055747;28;20209;-66
2023/04/02 01:47:26;;;;;;;1.33;1.23;;;15.80;60.10;;;;;;5039675;28;20642;-65
2023/04/02 01:49:53;;;;;;;1.25;1.23;;;15.80;60.10;;;;;;5053847;28;20210;-66
2023/04/02 01:52:32;;;;;;;1.35;1.30;;;15.80;60.10;;;;;;5054324;28;20179;-64
2023/04/02 01:54:58;;;;;;;1.95;1.63;;;15.80;60.20;;;;;;5054271;28;20611;-66
2023/04/02 01:57:24;;;;;;;2.05;1.75;;;15.80;60.10;;;;;;5053749;28;20202;-65
2023/04/02 01:59:49;;;;;;;1.50;1.40;;;15.80;60.10;;;;;;5053728;28;20207;-65
2023/04/02 02:02:16;;;;;;;1.42;1.35;;;15.80;60.20;;;;;;5053297;28;20171;-65
2023/04/02 02:04:42;;;;;;;1.30;1.30;;;15.80;60.10;;;;;;5053867;28;20183;-67
2023/04/02 02:07:14;;;;;;;1.27;1.20;;;15.80;60.10;;;;;;5054115;28;20179;-65
2023/04/02 02:09:39;;;;;;;1.38;1.27;;;15.80;60.00;;;;;;5037391;28;20179;-65
2023/04/02 02:12:05;;;;;;;1.40;1.30;;;15.80;60.00;;;;;;5054863;28;20266;-64
2023/04/02 02:14:31;;;;;;;1.20;1.10;;;15.80;60.00;;;;;;5053854;28;20170;-65
2023/04/02 02:17:01;;;;;;;1.83;1.70;;;15.80;60.10;;;;;;5053679;28;20183;-64
2023/04/02 02:19:40;;;;;;;1.85;1.70;;;15.80;60.00;;;;;;5053864;28;20233;-64
2023/04/02 02:22:13;;;;;;;1.67;1.58;;;15.70;60.00;;;;;;5052476;28;20230;-64
2023/04/02 02:24:38;;;;;;;1.40;1.30;;;15.80;60.00;;;;;;5037864;28;20183;-65
2023/04/02 02:27:24;;;;;;;1.65;1.25;;;15.80;60.00;;;;;;5053309;28;20171;-66
2023/04/02 02:30:13;;;;;;;1.63;1.52;;;15.80;60.00;;;;;;5052573;28;20565;-67
2023/04/02 02:32:46;;;;;;;1.25;1.25;;;15.70;59.90;;;;;;5051411;28;20630;-66
2023/04/02 02:35:24;;;;;;;1.40;1.40;;;15.70;60.00;;;;;;5053627;28;20208;-66
2023/04/02 02:38:26;;;;;;;2.00;1.90;;;15.70;59.90;;;;;;5053466;28;20183;-64
2023/04/02 02:40:53;;;;;;;1.50;1.40;;;15.70;60.00;;;;;;5042211;28;20234;-65
2023/04/02 02:43:18;;;;;;;1.70;1.60;;;15.70;59.90;;;;;;5036216;28;20294;-66
2023/04/02 02:45:44;;;;;;;1.75;1.65;;;15.70;60.00;;;;;;5054169;28;20262;-65
2023/04/02 02:48:14;;;;;;;2.03;1.58;;;15.70;59.90;;;;;;5053122;28;20171;-65
2023/04/02 02:50:40;;;;;;;1.70;1.60;;;15.70;59.90;;;;;;5036152;28;20175;-66
2023/04/02 02:53:19;;;;;;;1.58;1.48;;;15.70;59.90;;;;;;5054184;28;20289;-65
2023/04/02 02:55:45;;;;;;;1.77;1.67;;;15.70;59.90;;;;;;5053973;28;20261;-65
2023/04/02 02:58:27;;;;;;;1.90;1.80;;;15.70;59.90;;;;;;5053402;28;20245;-65
2023/04/02 03:00:53;;;;;;;1.63;1.52;;;15.70;60.00;;;;;;5053874;28;20243;-66
2023/04/02 03:03:20;;;;;;;1.52;1.23;;;15.70;59.90;;;;;;5053964;28;20249;-65
2023/04/02 03:05:51;;;;;;;1.63;1.52;;;15.70;59.90;;;;;;5051895;28;20187;-65
2023/04/02 03:08:36;;;;;;;1.90;1.80;;;15.70;59.90;;;;;;5035831;28;20254;-64
2023/04/02 03:11:18;;;;;;;1.50;1.40;;;15.70;59.90;;;;;;5052214;28;20186;-65
2023/04/02 03:13:46;;;;;;;2.08;1.67;;;15.60;59.90;;;;;;5052469;28;20221;-65
2023/04/02 03:16:15;;;;;;;1.48;1.38;;;15.60;59.80;;;;;;5036359;28;20171;-63
2023/04/02 03:18:54;;;;;;;1.80;1.70;;;15.70;59.90;;;;;;5053087;28;20194;-65
2023/04/02 03:21:25;;;;;;;1.60;1.50;;;15.60;59.80;;;;;;5052194;28;20238;-64
2023/04/02 03:23:59;;;;;;;1.75;1.65;;;15.60;59.80;;;;;;5053603;28;20258;-64
2023/04/02 03:26:26;;;;;;;1.30;1.30;;;15.70;59.90;;;;;;5035827;28;20179;-66
2023/04/02 03:29:15;;;;;;;1.58;1.48;;;15.60;59.80;;;;;;5052299;28;20182;-66
2023/04/02 03:31:43;;;;;;;1.83;1.73;;;15.60;59.80;;;;;;5052309;28;20258;-66
2023/04/02 03:34:22;;;;;;;1.50;1.40;;;15.70;59.80;;;;;;5051516;28;20186;-66
2023/04/02 03:36:55;;;;;;;1.50;1.40;;;15.60;59.80;;;;;;5053379;28;20233;-64
2023/04/02 03:39:26;;;;;;;1.70;1.60;;;15.60;59.80;;;;;;5052226;28;20186;-65
2023/04/02 03:42:13;;;;;;;2.08;1.95;;;15.60;59.80;;;;;;5051930;28;20180;-65
2023/04/02 03:44:44;;;;;;;1.88;1.65;;;15.60;59.80;;;;;;5036491;28;20190;-66
2023/04/02 03:47:29;;;;;;;1.70;1.60;;;15.60;59.80;;;;;;5034889;28;20711;-66
2023/04/02 03:49:58;;;;;;;1.40;1.30;;;15.60;59.80;;;;;;5037689;28;20229;-65
2023/04/02 03:52:25;;;;;;;1.52;1.42;;;15.60;59.80;;;;;;5052020;28;20206;-65
2023/04/02 03:54:52;;;;;;;1.70;1.60;;;15.60;59.80;;;;;;5050777;28;20175;-66
2023/04/02 03:57:35;;;;;;;1.65;1.55;;;15.60;59.80;;;;;;5051828;28;20709;-64
2023/04/02 04:00:25;;;;;;;1.52;1.42;;;15.60;59.80;;;;;;5051669;28;20214;-66
2023/04/02 04:02:52;;;;;;;1.80;1.70;;;15.60;59.80;;;;;;5036532;28;20740;-65
2023/04/02 04:05:23;;;;;;;1.80;1.70;;;15.60;59.80;;;;;;5051382;28;20205;-66
2023/04/02 04:07:50;;;;;;;1.80;1.70;;;15.60;59.90;;;;;;5035061;28;20620;-65
2023/04/02 04:10:18;;;;;;;2.50;2.10;;;15.50;59.80;;;;;;5051640;28;20202;-65
2023/04/02 04:12:45;;;;;;;1.85;1.75;;;15.60;59.80;;;;;;5051567;28;20278;-65
2023/04/02 04:15:35;;;;;;;1.77;1.67;;;15.60;59.80;;;;;;5050994;28;20225;-64
2023/04/02 04:18:20;;;;;;;1.83;1.73;;;15.60;59.80;;;;;;5051594;28;20179;-64
2023/04/02 04:20:55;;;;;;;1.80;1.70;;;15.60;59.80;;;;;;5052143;28;20254;-64
2023/04/02 04:23:29;;;;;;;1.80;1.70;;;15.60;59.70;;;;;;5034961;28;20173;-64
2023/04/02 04:26:48;;;;;;;2.13;1.80;;;15.50;59.80;;;;;;5052602;28;20175;-65
2023/04/02 04:29:36;;;;;;;1.83;1.73;;;15.50;59.70;;;;;;5039942;28;20221;-67
2023/04/02 04:32:25;;;;;;;1.90;1.80;;;15.50;59.70;;;;;;5051397;28;20175;-66
2023/04/02 04:34:55;;;;;;;1.75;1.65;;;15.50;59.60;;;;;;5052577;28;20175;-66
2023/04/02 04:37:24;;;;;;;1.83;1.73;;;15.60;59.60;;;;;;5050813;28;20510;-65
2023/04/02 04:40:18;;;;;;;1.80;1.70;;;15.50;59.60;;;;;;5034465;28;20725;-65
2023/04/02 04:42:43;;;;;;;1.85;1.70;;;15.50;59.60;;;;;;5050421;28;20179;-65
2023/04/02 04:45:22;;;;;;;1.70;1.60;;;15.50;59.60;;;;;;5052463;28;20186;-66
2023/04/02 04:48:01;;;;;;;2.10;2.00;;;15.50;59.60;;;;;;5051136;28;20179;-66
2023/04/02 04:50:36;;;;;;;1.77;1.67;;;15.50;59.60;;;;;;5035645;28;20179;-66
2023/04/02 04:53:14;;;;;;;1.60;1.50;;;15.50;59.70;;;;;;5051052;28;20206;-65
2023/04/02 04:55:42;;;;;;;2.15;2.00;;;15.50;59.60;;;;;;5051544;28;20258;-64
2023/04/02 04:58:34;;;;;;;1.80;1.70;;;15.50;59.60;;;;;;5051869;28;20179;-64
2023/04/02 05:01:04;;;;;;;1.73;1.63;;;15.50;59.50;;;;;;5041657;28;20211;-66
2023/04/02 05:03:47;;;;;;;2.35;1.73;;;15.60;59.20;;;;;;5052428;28;20179;-65
2023/04/02 05:06:24;;;;;;;1.98;1.88;;;15.70;59.00;;;;;;5052422;28;20246;-65
2023/04/02 05:08:51;;;;;;;1.73;1.63;;;15.70;58.80;;;;;;5052184;28;20630;-65
2023/04/02 05:11:27;;;;;;;1.50;1.40;;;15.70;58.70;;;;;;5050392;28;20661;-64
2023/04/02 05:13:55;;;;;;;1.92;1.77;;;15.80;58.60;;;;;;5051039;28;20221;-64
2023/04/02 05:16:37;;;;;;;1.63;1.42;;;15.80;58.60;;;;;;5051319;28;20175;-64
2023/04/02 05:19:11;;;;;;;1.85;1.60;;;15.80;58.70;;;;;;5050287;28;20642;-64
2023/04/02 05:21:44;;;;;;;1.60;1.50;;;15.70;58.70;;;;;;5034978;28;20263;-64
2023/04/02 05:24:19;;;;;;;2.20;2.00;;;15.70;58.80;;;;;;5051110;28;20646;-63
2023/04/02 05:26:45;;;;;;;1.67;1.58;;;15.70;58.90;;;;;;5051376;28;20232;-66
2023/04/02 05:29:27;;;;;;;1.60;1.50;;;15.60;58.90;;;;;;5034521;28;20171;-66
2023/04/02 05:31:54;;;;;;;1.75;1.65;;;15.60;59.00;;;;;;5051114;28;20266;-66
2023/04/02 05:34:25;;;;;;;1.50;1.40;;;15.60;59.00;;;;;;5054294;28;20654;-65
2023/04/02 05:36:50;;;;;;;1.60;1.50;;;15.60;59.00;;;;;;5037740;28;20676;-65
2023/04/02 05:39:20;;;;;;;1.67;1.50;;;15.60;59.20;;;;;;5055053;28;20266;-65
2023/04/02 05:41:46;;;;;;;1.55;1.45;;;15.60;59.20;;;;;;5037899;28;20206;-64
2023/04/02 05:44:23;;;;;;;1.83;1.73;;;15.50;59.10;;;;;;5055640;28;20323;-64
2023/04/02 05:46:54;;;;;;;1.50;1.40;;;15.50;59.20;;;;;;5053485;28;20179;-66
2023/04/02 05:49:35;;;;;;;1.80;1.70;;;15.50;59.20;;;;;;5054295;28;20179;-66
2023/04/02 05:52:02;;;;;;;1.50;1.40;;;15.50;59.20;;;;;;5053940;28;20693;-65
2023/04/02 05:54:33;;;;;;;1.70;1.60;;;15.50;59.30;;;;;;5037100;28;20179;-66
2023/04/02 05:57:03;;;;;;;1.80;1.70;;;15.50;59.20;;;;;;5037362;28;20214;-65
2023/04/02 05:59:32;;;;;;;2.03;1.60;;;15.60;59.00;;;;;;5037478;28;20194;-66
2023/04/02 06:02:17;;;;;;;2.45;1.67;;;15.60;58.80;;;;;;5052882;28;20225;-65
2023/04/02 06:04:57;;;;;;;1.77;1.63;;;15.70;58.80;;;;;;5053820;28;20638;-66
2023/04/02 06:07:46;;;;;;;1.48;1.38;;;15.80;58.70;;;;;;5038565;28;20237;-66
2023/04/02 06:10:22;;;;;;;1.52;1.40;;;15.90;58.50;;;;;;5048424;28;20175;-64
2023/04/02 06:12:52;;;;;;;2.05;1.42;;;16.10;58.40;;;;;;5053566;28;20182;-64
2023/04/02 06:15:20;;;;;;;1.23;1.13;;;16.20;58.10;;;;;;5053101;28;20179;-64
2023/04/02 06:18:11;;;;;;;1.50;1.40;;;16.40;57.90;;;;;;5054436;28;20174;-63
2023/04/02 06:20:37;;;;;;;1.58;1.30;;;16.60;57.50;;;;;;5045979;28;20269;-63
2023/04/02 06:23:23;;;;;;;1.17;1.08;;;16.80;57.40;;;;;;5053816;28;20565;-63
2023/04/02 06:26:16;;;;;;;1.45;1.35;;;17.00;57.00;;;;;;5053474;28;20183;-64
2023/04/02 06:28:47;;;;;;;1.35;1.25;;;17.10;56.80;;;;;;5037309;28;20183;-65
2023/04/02 06:31:29;;;;;;;1.25;1.15;;;17.30;56.50;;;;;;5053444;28;20190;-65
2023/04/02 06:33:55;;;;;;;1.60;1.10;;;17.30;56.40;;;;;;5053147;28;20266;-64
2023/04/02 06:36:21;;;;;;;1.00;1.00;;;17.30;56.50;;;;;;5052564;28;20635;-66
2023/04/02 06:38:47;;;;;;;1.23;1.00;;;17.30;56.50;;;;;;5053035;28;20269;-66
2023/04/02 06:41:19;;;;;;;1.00;1.00;;;17.30;56.50;;;;;;5036495;28;20231;-65
2023/04/02 06:43:48;;;;;;;1.05;1.00;;;17.40;56.40;;;;;;5052298;28;20262;-65
2023/04/02 06:46:27;;;;;;;1.02;1.00;;;17.40;56.50;;;;;;5037043;28;20183;-66
2023/04/02 06:48:58;;;;;;;0.98;0.93;;;17.40;56.50;;;;;;5052921;28;20179;-66
2023/04/02 06:51:23;;;;;;;1.63;1.00;;;17.40;56.50;;;;;;5036088;28;20171;-65
2023/04/02 06:53:50;;;;;;;0.80;0.80;;;17.30;56.50;;;;;;5052745;28;20695;-65
2023/04/02 06:56:35;;;;;;;1.08;0.90;;;17.40;56.50;;;;;;5053953;28;20183;-65
2023/04/02 06:59:03;;;;;;;1.40;0.90;;;17.40;56.40;;;;;;5052752;28;20195;-66
2023/04/02 07:01:30;;;;;;;1.98;1.10;;;17.40;56.50;;;;;;5036539;28;20215;-66
2023/04/02 07:03:56;;;;;;;0.90;0.90;;;17.40;56.40;;;;;;5035538;28;20190;-66
2023/04/02 07:06:22;;;;;;;1.00;0.70;;;17.40;56.40;;;;;;5052632;28;20174;-66
2023/04/02 07:08:47;;;;;;;1.10;0.80;;;17.40;56.40;;;;;;5053714;28;20239;-65
2023/04/02 07:11:17;;;;;;;1.10;0.90;;;17.40;56.40;;;;;;5053301;28;20591;-64
2023/04/02 07:13:43;;;;;;;2.08;1.02;;;17.50;56.40;;;;;;5053513;28;20179;-65
2023/04/02 07:16:35;;;;;;;1.20;0.93;;;17.40;56.40;;;;;;5053706;28;20176;-64
2023/04/02 07:19:02;;;;;;;1.38;0.98;;;17.50;56.30;;;;;;5051469;28;20183;-64
2023/04/02 07:21:28;;;;;;;1.13;0.90;;;17.40;56.40;;;;;;5053494;28;20313;-64
2023/04/02 07:23:54;;;;;;;1.02;0.95;;;17.40;56.40;;;;;;5053322;28;20593;-65
2023/04/02 07:26:22;;;;;;;0.80;0.73;;;17.40;56.40;;;;;;5053021;28;20261;-66
2023/04/02 07:28:47;;;;;;;1.70;1.00;;;17.40;56.50;;;;;;5053318;28;20175;-66
2023/04/02 07:31:18;;;;;;;1.00;0.90;;;17.30;56.50;;;;;;5053463;28;20178;-66
2023/04/02 07:33:44;;;;;;;1.17;1.00;;;17.30;56.60;;;;;;5052348;28;20175;-66
2023/04/02 07:36:20;;;;;;;1.40;1.08;;;17.20;56.60;;;;;;5053470;28;20266;-64
2023/04/02 07:38:46;;;;;;;0.85;0.85;;;17.20;56.80;;;;;;5052418;28;20179;-65
2023/04/02 07:41:11;;;;;;;1.10;1.00;;;17.20;56.80;;;;;;5053225;28;20247;-65
2023/04/02 07:43:37;;;;;;;1.15;1.08;;;17.20;56.80;;;;;;5053328;28;20190;-66
2023/04/02 07:46:03;;;;;;;1.52;1.27;;;17.20;56.80;;;;;;5052187;28;20210;-66
2023/04/02 07:48:29;;;;;;;1.45;1.10;;;17.20;56.80;;;;;;5053307;28;20179;-66
2023/04/02 07:50:54;;;;;;;0.80;0.80;;;17.20;56.80;;;;;;5053353;28;20175;-65
2023/04/02 07:53:33;;;;;;;0.80;0.80;;;17.20;56.80;;;;;;5052341;28;20210;-65
2023/04/02 07:56:00;;;;;;;1.05;0.90;;;17.20;56.80;;;;;;5052093;28;20179;-66
2023/04/02 07:58:26;;;;;;;1.10;1.00;;;17.20;56.80;;;;;;5052662;28;20183;-66
2023/04/02 08:00:51;;;;;;;1.58;1.05;;;17.20;56.90;;;;;;5051899;28;20274;-64
2023/04/02 08:03:17;;;;;;;3.10;1.10;;;17.20;57.20;;;;;;5052887;28;20175;-64
2023/04/02 08:05:43;;;;;;;3.20;1.13;;;17.20;57.30;;;;;;5052612;28;20593;-61
2023/04/02 08:08:08;;;;;;;3.10;1.00;;;17.20;57.30;;;;;;5050640;28;20590;-62
2023/04/02 08:10:34;;;;;;;1.88;1.00;;;17.10;57.40;;;;;;5052785;28;20265;-63
2023/04/02 08:12:59;;;;;;;3.60;1.40;;;17.10;57.70;;;;;;5052329;28;20258;-62
2023/04/02 08:15:25;;;;;;;2.30;1.20;;;17.00;57.90;;;;;;5051878;28;20179;-63
2023/04/02 08:17:50;;;;;;;1.30;0.90;;;17.00;58.00;;;;;;5052143;28;20246;-63
2023/04/02 08:20:17;;;;;;;2.08;0.90;;;17.00;58.00;;;;;;5052015;28;20306;-62
2023/04/02 08:22:44;;;;;;;2.65;1.20;;;16.90;58.10;;;;;;5051084;28;20697;-62
2023/04/02 08:25:10;;;;;;;1.80;1.00;;;16.90;58.10;;;;;;5051981;28;20171;-62
2023/04/02 08:27:35;;;;;;;2.30;1.10;;;16.90;58.10;;;;;;5049431;28;20175;-63
2023/04/02 08:30:01;;;;;;;3.25;1.10;;;16.90;58.10;;;;;;5051668;28;20323;-63
2023/04/02 08:32:27;;;;;;;3.60;1.08;;;16.90;58.20;;;;;;5052584;28;20576;-64
2023/04/02 08:34:53;;;;;;;2.10;0.82;;;16.90;58.20;;;;;;5051451;28;20653;-64
2023/04/02 08:37:18;;;;;;;2.33;1.10;;;16.80;58.20;;;;;;5052378;28;20175;-63
2023/04/02 08:39:44;;;;;;;3.53;1.50;;;16.80;58.20;;;;;;5052120;28;20214;-64
2023/04/02 08:42:28;;;;;;;3.13;1.40;;;16.80;58.30;;;;;;5051272;28;20193;-64
2023/04/02 08:45:31;;;;;;;1.58;1.20;;;16.70;58.30;;;;;;5050258;28;20521;-65
2023/04/02 08:47:57;;;;;;;1.25;1.10;;;16.70;58.40;;;;;;5051588;28;20183;-64
2023/04/02 08:50:34;;;;;;;3.50;1.30;;;16.60;58.30;;;;;;5051067;28;20207;-63
2023/04/02 08:53:01;;;;;;;2.75;1.30;;;16.70;58.30;;;;;;5050288;28;20177;-63
2023/04/02 08:56:04;;;;;;;1.50;1.23;;;16.70;58.10;;;;;;5050356;28;20187;-63
2023/04/02 08:58:49;;;;;;;3.20;1.05;;;16.60;58.10;;;;;;5050963;28;20183;-64
2023/04/02 09:01:20;;;;;;;3.20;1.00;;;16.70;58.00;;;;;;5050477;28;20207;-64
2023/04/02 09:03:47;;;;;;;1.30;1.10;;;16.80;57.90;;;;;;5050626;28;20282;-63
2023/04/02 09:06:14;;;;;;;1.63;1.40;;;16.90;57.90;;;;;;5050644;28;20321;-64
2023/04/02 09:08:40;;;;;;;2.17;1.33;;;16.90;57.80;;;;;;5053805;28;20172;-64
2023/04/02 09:11:23;;;;;;;1.30;1.13;;;16.80;57.80;;;;;;5053082;28;20664;-63
2023/04/02 09:13:56;;;;;;;1.55;1.40;;;16.90;57.80;;;;;;5055170;28;20190;-63
2023/04/02 09:16:42;;;;;;;2.03;0.80;;;16.90;58.00;;;;;;5055097;28;20186;-63
2023/04/02 09:19:21;;;;;;;1.30;0.90;;;16.90;58.00;;;;;;5053428;28;20183;-66
2023/04/02 09:22:02;;;;;;;1.48;1.10;;;16.90;58.30;;;;;;5053470;28;20686;-65
2023/04/02 09:24:28;;;;;;;3.88;1.30;;;16.80;58.20;;;;;;5053429;28;20182;-66
2023/04/02 09:26:53;;;;;;;2.63;1.10;;;16.80;58.20;;;;;;5055045;28;20271;-66
2023/04/02 09:29:30;;;;;;;1.42;1.20;;;16.80;58.20;;;;;;5055244;28;20250;-67
2023/04/02 09:32:35;;;;;;;1.05;0.95;;;16.70;58.20;;;;;;5052852;28;20262;-67
2023/04/02 09:35:18;;;;;;;2.67;1.63;;;16.70;58.30;;;;;;5042375;28;20183;-66
2023/04/02 09:37:44;;;;;;;1.83;1.20;;;16.70;58.40;;;;;;5054727;28;20184;-66
2023/04/02 09:40:23;;;;;;;1.63;1.33;;;16.70;58.40;;;;;;5054149;28;20203;-66
2023/04/02 09:42:49;;;;;;;1.30;1.10;;;16.70;58.40;;;;;;5054351;28;20199;-66
2023/04/02 09:45:24;;;;;;;1.30;1.20;;;16.60;58.40;;;;;;5053180;28;20629;-65
2023/04/02 09:47:50;;;;;;;1.27;1.17;;;16.60;58.40;;;;;;5054439;28;20171;-67
2023/04/02 09:50:32;;;;;;;1.70;1.30;;;16.60;58.40;;;;;;5053748;28;20183;-65
2023/04/02 09:52:57;;;;;;;2.25;1.35;;;16.60;58.40;;;;;;5053634;28;20653;-66
2023/04/02 09:55:29;;;;;;;1.40;1.10;;;16.60;58.40;;;;;;5054605;28;20274;-66
2023/04/02 09:58:14;;;;;;;1.73;1.10;;;16.60;58.40;;;;;;5054657;28;20171;-67
2023/04/02 10:00:51;;;;;;;1.27;1.00;;;16.60;58.30;;;;;;5053723;28;20630;-67
2023/04/02 10:03:27;;;;;;;1.30;1.20;;;16.60;58.20;;;;;;5053350;28;20179;-66
2023/04/02 10:06:13;;;;;;;1.40;1.10;;;16.60;58.30;;;;;;5053176;28;20175;-66
2023/04/02 10:08:40;;;;;;;1.77;1.30;;;16.50;58.30;;;;;;5052805;28;20690;-65
2023/04/02 10:11:14;;;;;;;2.00;1.20;;;16.40;58.30;;;;;;5054093;28;20183;-65
2023/04/02 10:13:43;;;;;;;2.25;1.00;;;16.50;58.30;;;;;;5052499;28;20223;-66
2023/04/02 10:16:12;;;;;;;1.52;1.42;;;16.50;58.50;;;;;;5054311;28;20579;-65
2023/04/02 10:18:48;;;;;;;1.17;1.02;;;16.40;58.50;;;;;;5053745;28;20568;-67
2023/04/02 10:21:26;;;;;;;1.50;1.38;;;16.60;58.30;;;;;;5053419;28;20239;-65
2023/04/02 10:23:52;;;;;;;1.25;0.95;;;16.70;57.90;;;;;;5053857;28;20176;-65
2023/04/02 10:26:35;;;;;;;2.33;1.02;;;16.80;57.60;;;;;;5053943;28;20668;-66
2023/04/02 10:29:14;;;;;;;1.63;1.25;;;16.90;57.60;;;;;;5051961;28;20245;-67
2023/04/02 10:31:49;;;;;;;0.95;0.93;;;16.90;57.30;;;;;;5052624;28;20583;-66
2023/04/02 10:34:27;;;;;;;1.60;1.40;;;17.00;57.20;;;;;;5052709;28;20270;-66
2023/04/02 10:36:54;;;;;;;1.30;1.10;;;17.00;57.30;;;;;;5052295;28;20171;-66
2023/04/02 10:39:21;;;;;;;1.33;1.23;;;17.00;57.20;;;;;;5052454;28;20286;-68
2023/04/02 10:42:17;;;;;;;1.58;1.40;;;17.00;57.30;;;;;;5051533;28;20312;-67
2023/04/02 10:45:00;;;;;;;1.90;0.90;;;16.90;57.50;;;;;;5053555;28;20260;-66
2023/04/02 10:47:43;;;;;;;1.20;1.10;;;16.80;57.70;;;;;;5052485;28;20251;-67
2023/04/02 10:50:30;;;;;;;1.00;0.90;;;16.80;57.70;;;;;;5051750;28;20172;-65
2023/04/02 10:53:02;;;;;;;2.17;1.13;;;16.90;57.60;;;;;;5052340;28;20178;-66
2023/04/02 10:55:29;;;;;;;1.30;1.20;;;16.80;57.70;;;;;;5051681;28;20179;-67
2023/04/02 10:57:56;;;;;;;0.80;0.80;;;16.90;57.80;;;;;;5052080;28;20254;-66
2023/04/02 11:00:26;;;;;;;1.70;1.10;;;16.90;57.50;;;;;;5052235;28;20752;-67
2023/04/02 11:03:08;;;;;;;2.10;1.17;;;17.00;57.30;;;;;;5051337;28;20185;-66
2023/04/02 11:05:44;;;;;;;1.02;1.00;;;17.10;57.20;;;;;;5052041;28;20603;-66
2023/04/02 11:08:24;;;;;;;2.25;1.10;;;17.20;57.10;;;;;;5051974;28;20252;-65
2023/04/02 11:11:10;;;;;;;2.25;1.00;;;17.20;57.10;;;;;;5051227;28;20179;-66
2023/04/02 11:13:59;;;;;;;2.20;1.10;;;17.20;57.10;;;;;;5048950;28;20183;-66
2023/04/02 11:16:26;;;;;;;1.05;0.93;;;17.20;57.10;;;;;;5052102;28;20600;-66
2023/04/02 11:19:13;;;;;;;0.98;0.90;;;17.10;57.30;;;;;;5051123;28;20241;-65
2023/04/02 11:21:43;;;;;;;1.00;0.90;;;17.10;57.30;;;;;;5052646;28;20317;-65
2023/04/02 11:24:35;;;;;;;1.02;1.02;;;17.20;57.30;;;;;;5051042;28;20198;-65
2023/04/02 11:27:10;;;;;;;3.50;1.17;;;17.20;57.20;;;;;;5052608;28;20248;-66
2023/04/02 11:30:22;;;;;;;1.15;1.05;;;17.30;57.10;;;;;;5052010;28;20227;-68
2023/04/02 11:32:48;;;;;;;1.42;1.10;;;17.30;57.00;;;;;;5050762;28;20182;-68
2023/04/02 11:35:29;;;;;;;1.90;1.10;;;17.30;57.20;;;;;;5051482;28;20171;-66
2023/04/02 11:37:56;;;;;;;1.38;1.17;;;17.30;57.10;;;;;;5051791;28;20186;-66
2023/04/02 11:40:49;;;;;;;1.23;1.00;;;17.30;57.00;;;;;;5052892;28;20210;-66
2023/04/02 11:43:33;;;;;;;1.38;1.23;;;17.40;57.00;;;;;;5052583;28;20264;-67
2023/04/02 11:46:01;;;;;;;1.08;0.85;;;17.60;57.10;;;;;;5051435;28;20644;-67
2023/04/02 11:48:32;;;;;;;0.90;0.90;;;17.40;57.00;;;;;;5052301;28;20641;-66
2023/04/02 11:50:57;;;;;;;2.15;1.10;;;17.40;57.00;;;;;;5052164;28;20224;-67
2023/04/02 11:53:31;;;;;;;0.93;0.85;;;17.40;57.00;;;;;;5050320;28;20179;-67
2023/04/02 11:56:00;;;;;;;1.40;1.10;;;17.50;57.00;;;;;;5050899;28;20206;-66
2023/04/02 11:58:34;;;;;;;0.85;0.85;;;17.50;56.90;;;;;;5052557;28;20250;-68
2023/04/02 12:01:06;;;;;;;1.05;0.95;;;17.50;57.00;;;;;;5050211;28;20647;-67
2023/04/02 12:03:49;;;;;;;1.40;1.00;;;17.50;56.90;;;;;;5050806;28;20336;-67
2023/04/02 12:06:31;;;;;;;1.45;1.05;;;17.50;56.90;;;;;;5050371;28;20175;-66
2023/04/02 12:09:13;;;;;;;1.02;0.93;;;17.60;56.90;;;;;;5050728;28;20214;-65
2023/04/02 12:11:39;;;;;;;0.90;0.90;;;17.60;56.90;;;;;;5051045;28;20229;-66
2023/04/02 12:14:31;;;;;;;1.05;1.00;;;17.60;56.90;;;;;;5050899;28;20638;-66
2023/04/02 12:16:57;;;;;;;1.50;1.10;;;17.60;56.90;;;;;;5051661;28;20221;-66
2023/04/02 12:19:23;;;;;;;1.15;1.02;;;17.60;56.90;;;;;;5052022;28;20194;-66
2023/04/02 12:21:48;;;;;;;1.20;1.10;;;17.60;57.00;;;;;;5049763;28;20231;-65
2023/04/02 12:24:20;;;;;;;1.77;0.98;;;17.60;57.00;;;;;;5050878;28;20171;-66
2023/04/02 12:26:46;;;;;;;1.55;1.00;;;17.70;57.00;;;;;;5050513;28;20509;-63
2023/04/02 12:29:25;;;;;;;0.98;0.90;;;17.70;57.00;;;;;;5049001;28;20273;-64
2023/04/02 12:31:51;;;;;;;1.40;0.90;;;17.70;56.90;;;;;;5050178;28;20178;-63
2023/04/02 12:34:21;;;;;;;1.42;0.90;;;17.80;56.90;;;;;;5049671;28;20262;-63
2023/04/02 12:37:01;;;;;;;1.33;1.10;;;17.80;56.90;;;;;;5050674;28;20206;-63
2023/04/02 12:39:27;;;;;;;1.00;0.90;;;17.80;56.90;;;;;;5050843;28;20190;-63
2023/04/02 12:41:52;;;;;;;0.90;0.90;;;17.90;56.90;;;;;;5049650;28;20214;-63
2023/04/02 12:44:20;;;;;;;2.55;1.00;;;17.90;56.90;;;;;;5055581;28;20177;-63
2023/04/02 12:46:46;;;;;;;1.13;1.02;;;17.90;56.90;;;;;;5055014;28;20179;-67
2023/04/02 12:49:36;;;;;;;1.13;0.77;;;17.90;56.90;;;;;;5054963;28;20270;-68
2023/04/02 12:52:03;;;;;;;2.42;1.10;;;17.90;56.80;;;;;;5054472;28;20771;-67
2023/04/02 12:54:30;;;;;;;3.45;1.15;;;18.00;56.70;;;;;;5054423;28;20641;-62
2023/04/02 12:57:34;;;;;;;1.60;1.08;;;18.00;56.30;;;;;;5053607;28;20183;-64
2023/04/02 13:00:18;;;;;;;1.60;1.10;;;18.00;55.70;;;;;;5055085;28;20210;-63
2023/04/02 13:02:45;;;;;;;3.17;0.95;;;18.10;56.20;;;;;;5054553;28;20203;-64
2023/04/02 13:05:10;;;;;;;0.88;0.80;;;18.20;55.60;;;;;;5055699;28;20203;-64
2023/04/02 13:07:36;;;;;;;1.40;1.13;;;18.20;55.60;;;;;;5055716;28;20256;-63
2023/04/02 13:10:03;;;;;;;2.25;0.95;;;18.30;55.60;;;;;;5054101;28;20229;-63
2023/04/02 13:12:37;;;;;;;1.30;1.20;;;18.30;55.70;;;;;;5054051;28;20176;-63
2023/04/02 13:15:30;;;;;;;1.48;1.25;;;18.30;55.70;;;;;;5053792;28;20187;-63
2023/04/02 13:18:11;;;;;;;1.45;0.98;;;18.40;55.70;;;;;;5051484;28;20187;-63
2023/04/02 13:20:38;;;;;;;1.15;1.00;;;18.40;55.70;;;;;;5054805;28;20210;-63
2023/04/02 13:23:28;;;;;;;0.93;0.90;;;18.50;55.70;;;;;;5053765;28;20710;-66